sensor_id;sensor_type;location;lat;lon;timestamp;temperature;humidity
3756;DHT22;1893;52.526;13.360;2023-09-19T00:01:15;18.40;99.90
3756;DHT22;1893;52.526;13.360;2023-09-19T00:03:40;18.40;99.90
3756;DHT22;1893;52.526;13.360;2023-09-19T00:06:07;18.30;99.90
3756;DHT22;1893;52.526;13.360;2023-09-19T00:08:34;18.30;99.90
3756;DHT22;1893;52.526;13.360;2023-09-19T00:10:59;18.30;99.90
3756;DHT22;1893;52.526;13.360;2023-09-19T00:13:34;18.20;99.90
3756;DHT22;1893;52.526;13.360;2023-09-19T00:16:01;18.20;99.90
3756;DHT22;1893;52.526;13.360;2023-09-19T00:18:33;18.20;99.90
3756;DHT22;1893;52.526;13.360;2023-09-19T00:21:00;18.20;99.90
3756;DHT22;1893;52.526;13.360;2023-09-19T00:23:26;18.20;99.90
3756;DHT22;1893;52.526;13.360;2023-09-19T00:25:52;18.20;99.90
3756;DHT22;1893;52.526;13.360;2023-09-19T00:28:22;18.10;99.90
3756;DHT22;1893;52.526;13.360;2023-09-19T00:30:48;18.10;99.90
3756;DHT22;1893;52.526;13.360;2023-09-19T00:33:18;18.00;99.90
3756;DHT22;1893;52.526;13.360;2023-09-19T00:35:51;18.10;99.90
3756;DHT22;1893;52.526;13.360;2023-09-19T00:38:17;18.00;99.90
3756;DHT22;1893;52.526;13.360;2023-09-19T00:40:47;18.00;99.90
3756;DHT22;1893;52.526;13.360;2023-09-19T00:43:13;18.00;99.90
3756;DHT22;1893;52.526;13.360;2023-09-19T00:45:39;18.00;99.90
3756;DHT22;1893;52.526;13.360;2023-09-19T00:48:08;18.00;99.90
3756;DHT22;1893;52.526;13.360;2023-09-19T00:50:35;18.00;99.90
3756;DHT22;1893;52.526;13.360;2023-09-19T00:53:01;18.00;99.90
3756;DHT22;1893;52.526;13.360;2023-09-19T00:55:34;18.00;99.90
3756;DHT22;1893;52.526;13.360;2023-09-19T00:58:00;18.00;99.90
3756;DHT22;1893;52.526;13.360;2023-09-19T01:00:26;18.00;99.90
3756;DHT22;1893;52.526;13.360;2023-09-19T01:02:52;18.00;99.90
3756;DHT22;1893;52.526;13.360;2023-09-19T01:05:19;18.00;99.90
3756;DHT22;1893;52.526;13.360;2023-09-19T01:07:45;18.00;99.90
3756;DHT22;1893;52.526;13.360;2023-09-19T01:10:14;18.00;99.90
3756;DHT22;1893;52.526;13.360;2023-09-19T01:18:43;18.00;99.90
3756;DHT22;1893;52.526;13.360;2023-09-19T01:31:40;18.10;99.90
3756;DHT22;1893;52.526;13.360;2023-09-19T01:34:08;18.10;99.90
3756;DHT22;1893;52.526;13.360;2023-09-19T01:36:37;18.10;99.90
3756;DHT22;1893;52.526;13.360;2023-09-19T01:39:10;18.00;99.90
3756;DHT22;1893;52.526;13.360;2023-09-19T01:44:38;18.20;99.90
3756;DHT22;1893;52.526;13.360;2023-09-19T01:50:38;18.20;99.90
3756;DHT22;1893;52.526;13.360;2023-09-19T01:56:33;18.10;99.90
3756;DHT22;1893;52.526;13.360;2023-09-19T01:59:06;18.10;99.90
3756;DHT22;1893;52.526;13.360;2023-09-19T02:01:32;18.00;99.90
3756;DHT22;1893;52.526;13.360;2023-09-19T02:03:59;18.00;99.90
3756;DHT22;1893;52.526;13.360;2023-09-19T02:06:24;17.90;99.90
3756;DHT22;1893;52.526;13.360;2023-09-19T02:08:50;17.90;99.90
3756;DHT22;1893;52.526;13.360;2023-09-19T02:11:16;17.80;99.90
3756;DHT22;1893;52.526;13.360;2023-09-19T02:13:42;17.80;99.90
3756;DHT22;1893;52.526;13.360;2023-09-19T02:16:09;17.70;99.90
3756;DHT22;1893;52.526;13.360;2023-09-19T02:18:36;17.70;99.90
3756;DHT22;1893;52.526;13.360;2023-09-19T02:21:02;17.60;99.90
3756;DHT22;1893;52.526;13.360;2023-09-19T02:23:29;17.70;99.90
3756;DHT22;1893;52.526;13.360;2023-09-19T02:25:56;17.70;99.90
3756;DHT22;1893;52.526;13.360;2023-09-19T02:28:26;17.70;99.90
3756;DHT22;1893;52.526;13.360;2023-09-19T02:30:55;17.60;99.90
3756;DHT22;1893;52.526;13.360;2023-09-19T02:33:21;17.60;99.90
3756;DHT22;1893;52.526;13.360;2023-09-19T02:35:47;17.60;99.90
3756;DHT22;1893;52.526;13.360;2023-09-19T02:38:13;17.60;99.90
3756;DHT22;1893;52.526;13.360;2023-09-19T02:40:40;17.60;99.90
3756;DHT22;1893;52.526;13.360;2023-09-19T02:43:06;17.60;99.90
3756;DHT22;1893;52.526;13.360;2023-09-19T02:45:33;17.60;99.90
3756;DHT22;1893;52.526;13.360;2023-09-19T02:47:59;17.50;99.90
3756;DHT22;1893;52.526;13.360;2023-09-19T02:50:25;17.50;99.90
3756;DHT22;1893;52.526;13.360;2023-09-19T02:52:51;17.50;99.90
3756;DHT22;1893;52.526;13.360;2023-09-19T02:55:18;17.60;99.90
3756;DHT22;1893;52.526;13.360;2023-09-19T02:57:52;17.50;99.90
3756;DHT22;1893;52.526;13.360;2023-09-19T03:00:22;17.50;99.90
3756;DHT22;1893;52.526;13.360;2023-09-19T03:02:54;17.50;99.90
3756;DHT22;1893;52.526;13.360;2023-09-19T03:05:21;17.50;99.90
3756;DHT22;1893;52.526;13.360;2023-09-19T03:07:47;17.50;99.90
3756;DHT22;1893;52.526;13.360;2023-09-19T03:10:20;17.50;99.90
3756;DHT22;1893;52.526;13.360;2023-09-19T03:12:49;17.50;99.90
3756;DHT22;1893;52.526;13.360;2023-09-19T03:15:15;17.50;99.90
3756;DHT22;1893;52.526;13.360;2023-09-19T03:17:47;17.60;99.90
3756;DHT22;1893;52.526;13.360;2023-09-19T03:20:13;17.60;99.90
3756;DHT22;1893;52.526;13.360;2023-09-19T03:22:43;17.60;99.90
3756;DHT22;1893;52.526;13.360;2023-09-19T03:25:08;17.60;99.90
3756;DHT22;1893;52.526;13.360;2023-09-19T03:27:37;17.70;99.90
3756;DHT22;1893;52.526;13.360;2023-09-19T03:30:04;17.70;99.90
3756;DHT22;1893;52.526;13.360;2023-09-19T03:32:35;17.70;99.90
3756;DHT22;1893;52.526;13.360;2023-09-19T03:35:01;17.70;99.90
3756;DHT22;1893;52.526;13.360;2023-09-19T03:37:27;17.70;99.90
3756;DHT22;1893;52.526;13.360;2023-09-19T03:39:53;17.70;99.90
3756;DHT22;1893;52.526;13.360;2023-09-19T03:42:18;17.70;99.90
3756;DHT22;1893;52.526;13.360;2023-09-19T03:44:50;17.70;99.90
3756;DHT22;1893;52.526;13.360;2023-09-19T03:47:17;17.70;99.90
3756;DHT22;1893;52.526;13.360;2023-09-19T03:49:44;17.70;99.90
3756;DHT22;1893;52.526;13.360;2023-09-19T03:52:10;17.70;99.90
3756;DHT22;1893;52.526;13.360;2023-09-19T03:54:36;17.70;99.90
3756;DHT22;1893;52.526;13.360;2023-09-19T03:57:01;17.70;99.90
3756;DHT22;1893;52.526;13.360;2023-09-19T03:59:29;17.70;99.90
3756;DHT22;1893;52.526;13.360;2023-09-19T04:01:55;17.70;99.90
3756;DHT22;1893;52.526;13.360;2023-09-19T04:04:22;17.70;99.90
3756;DHT22;1893;52.526;13.360;2023-09-19T04:06:50;17.70;99.90
3756;DHT22;1893;52.526;13.360;2023-09-19T04:09:16;17.60;99.90
3756;DHT22;1893;52.526;13.360;2023-09-19T04:11:41;17.60;99.90
3756;DHT22;1893;52.526;13.360;2023-09-19T04:14:07;17.60;99.90
3756;DHT22;1893;52.526;13.360;2023-09-19T04:16:32;17.60;99.90
3756;DHT22;1893;52.526;13.360;2023-09-19T04:18:58;17.50;99.90
3756;DHT22;1893;52.526;13.360;2023-09-19T04:21:24;17.50;99.90
3756;DHT22;1893;52.526;13.360;2023-09-19T04:23:50;17.50;99.90
3756;DHT22;1893;52.526;13.360;2023-09-19T04:26:19;17.40;99.90
3756;DHT22;1893;52.526;13.360;2023-09-19T04:28:44;17.40;99.90
3756;DHT22;1893;52.526;13.360;2023-09-19T04:31:11;17.40;99.90
3756;DHT22;1893;52.526;13.360;2023-09-19T04:33:37;17.40;99.90
3756;DHT22;1893;52.526;13.360;2023-09-19T04:36:03;17.40;99.90
3756;DHT22;1893;52.526;13.360;2023-09-19T04:38:31;17.40;99.90
3756;DHT22;1893;52.526;13.360;2023-09-19T04:40:59;17.30;99.90
3756;DHT22;1893;52.526;13.360;2023-09-19T04:43:26;17.30;99.90
3756;DHT22;1893;52.526;13.360;2023-09-19T04:45:51;17.30;99.90
3756;DHT22;1893;52.526;13.360;2023-09-19T04:48:22;17.30;99.90
3756;DHT22;1893;52.526;13.360;2023-09-19T04:50:49;17.20;99.90
3756;DHT22;1893;52.526;13.360;2023-09-19T04:53:15;17.20;99.90
3756;DHT22;1893;52.526;13.360;2023-09-19T04:55:40;17.20;99.90
3756;DHT22;1893;52.526;13.360;2023-09-19T04:58:06;17.20;99.90
3756;DHT22;1893;52.526;13.360;2023-09-19T05:00:31;17.20;99.90
3756;DHT22;1893;52.526;13.360;2023-09-19T05:03:00;17.20;99.90
3756;DHT22;1893;52.526;13.360;2023-09-19T05:05:26;17.20;99.90
3756;DHT22;1893;52.526;13.360;2023-09-19T05:07:52;17.10;99.90
3756;DHT22;1893;52.526;13.360;2023-09-19T05:10:19;17.10;99.90
3756;DHT22;1893;52.526;13.360;2023-09-19T05:12:45;17.10;99.90
3756;DHT22;1893;52.526;13.360;2023-09-19T05:15:14;17.10;99.90
3756;DHT22;1893;52.526;13.360;2023-09-19T05:17:51;17.10;99.90
3756;DHT22;1893;52.526;13.360;2023-09-19T05:20:17;17.00;99.90
3756;DHT22;1893;52.526;13.360;2023-09-19T05:23:04;17.10;99.90
3756;DHT22;1893;52.526;13.360;2023-09-19T05:25:34;17.10;99.90
3756;DHT22;1893;52.526;13.360;2023-09-19T05:28:04;17.00;99.90
3756;DHT22;1893;52.526;13.360;2023-09-19T05:30:32;17.00;99.90
3756;DHT22;1893;52.526;13.360;2023-09-19T05:32:58;17.00;99.90
3756;DHT22;1893;52.526;13.360;2023-09-19T05:35:24;16.90;99.90
3756;DHT22;1893;52.526;13.360;2023-09-19T05:37:51;16.90;99.90
3756;DHT22;1893;52.526;13.360;2023-09-19T05:40:20;16.90;99.90
3756;DHT22;1893;52.526;13.360;2023-09-19T05:42:47;17.00;99.90
3756;DHT22;1893;52.526;13.360;2023-09-19T05:45:13;17.00;99.90
3756;DHT22;1893;52.526;13.360;2023-09-19T05:47:42;17.00;99.90
3756;DHT22;1893;52.526;13.360;2023-09-19T05:50:11;17.00;99.90
3756;DHT22;1893;52.526;13.360;2023-09-19T05:52:37;17.00;99.90
3756;DHT22;1893;52.526;13.360;2023-09-19T05:55:06;17.00;99.90
3756;DHT22;1893;52.526;13.360;2023-09-19T05:57:33;17.00;99.90
3756;DHT22;1893;52.526;13.360;2023-09-19T05:59:59;17.00;99.90
3756;DHT22;1893;52.526;13.360;2023-09-19T06:02:24;17.00;99.90
3756;DHT22;1893;52.526;13.360;2023-09-19T06:04:54;17.00;99.90
3756;DHT22;1893;52.526;13.360;2023-09-19T06:07:24;17.00;99.90
3756;DHT22;1893;52.526;13.360;2023-09-19T06:09:52;17.00;99.90
3756;DHT22;1893;52.526;13.360;2023-09-19T06:12:19;17.10;99.90
3756;DHT22;1893;52.526;13.360;2023-09-19T06:14:45;17.10;99.90
3756;DHT22;1893;52.526;13.360;2023-09-19T06:17:10;17.10;99.90
3756;DHT22;1893;52.526;13.360;2023-09-19T06:19:36;17.10;99.90
3756;DHT22;1893;52.526;13.360;2023-09-19T06:22:01;17.20;99.90
3756;DHT22;1893;52.526;13.360;2023-09-19T06:24:27;17.20;99.90
3756;DHT22;1893;52.526;13.360;2023-09-19T06:26:53;17.20;99.90
3756;DHT22;1893;52.526;13.360;2023-09-19T06:29:20;17.30;99.90
3756;DHT22;1893;52.526;13.360;2023-09-19T06:31:48;17.30;99.90
3756;DHT22;1893;52.526;13.360;2023-09-19T06:34:14;17.50;99.90
3756;DHT22;1893;52.526;13.360;2023-09-19T06:36:40;17.60;99.90
3756;DHT22;1893;52.526;13.360;2023-09-19T06:39:06;17.80;99.90
3756;DHT22;1893;52.526;13.360;2023-09-19T06:41:39;18.00;99.90
3756;DHT22;1893;52.526;13.360;2023-09-19T06:44:06;18.40;99.90
3756;DHT22;1893;52.526;13.360;2023-09-19T06:46:32;18.50;99.90
3756;DHT22;1893;52.526;13.360;2023-09-19T06:49:01;18.80;99.90
3756;DHT22;1893;52.526;13.360;2023-09-19T06:51:32;18.80;99.90
3756;DHT22;1893;52.526;13.360;2023-09-19T06:54:00;18.70;99.90
3756;DHT22;1893;52.526;13.360;2023-09-19T06:56:26;19.00;99.90
3756;DHT22;1893;52.526;13.360;2023-09-19T06:58:52;19.10;99.90
3756;DHT22;1893;52.526;13.360;2023-09-19T07:01:18;18.90;99.90
3756;DHT22;1893;52.526;13.360;2023-09-19T07:03:43;19.10;99.90
3756;DHT22;1893;52.526;13.360;2023-09-19T07:06:11;19.20;99.90
3756;DHT22;1893;52.526;13.360;2023-09-19T07:08:36;19.10;99.90
3756;DHT22;1893;52.526;13.360;2023-09-19T07:11:04;19.20;99.90
3756;DHT22;1893;52.526;13.360;2023-09-19T07:13:31;19.30;99.90
3756;DHT22;1893;52.526;13.360;2023-09-19T07:15:58;19.30;99.90
3756;DHT22;1893;52.526;13.360;2023-09-19T07:18:25;19.50;99.90
3756;DHT22;1893;52.526;13.360;2023-09-19T07:20:50;19.50;99.90
3756;DHT22;1893;52.526;13.360;2023-09-19T07:23:21;19.30;99.90
3756;DHT22;1893;52.526;13.360;2023-09-19T07:25:48;19.50;99.90
3756;DHT22;1893;52.526;13.360;2023-09-19T07:28:14;19.40;99.90
3756;DHT22;1893;52.526;13.360;2023-09-19T07:30:40;19.30;99.90
3756;DHT22;1893;52.526;13.360;2023-09-19T07:33:07;19.00;99.90
3756;DHT22;1893;52.526;13.360;2023-09-19T07:35:33;18.90;99.90
3756;DHT22;1893;52.526;13.360;2023-09-19T07:37:59;18.80;99.90
3756;DHT22;1893;52.526;13.360;2023-09-19T07:40:27;18.60;99.90
3756;DHT22;1893;52.526;13.360;2023-09-19T07:42:55;18.70;99.90
3756;DHT22;1893;52.526;13.360;2023-09-19T07:45:20;18.60;99.90
3756;DHT22;1893;52.526;13.360;2023-09-19T07:47:47;18.60;99.90
3756;DHT22;1893;52.526;13.360;2023-09-19T07:50:16;18.50;99.90
3756;DHT22;1893;52.526;13.360;2023-09-19T07:52:44;18.60;99.90
3756;DHT22;1893;52.526;13.360;2023-09-19T07:55:10;18.80;99.90
3756;DHT22;1893;52.526;13.360;2023-09-19T07:57:42;18.80;99.90
3756;DHT22;1893;52.526;13.360;2023-09-19T08:00:09;18.80;99.90
3756;DHT22;1893;52.526;13.360;2023-09-19T08:02:39;18.80;99.90
3756;DHT22;1893;52.526;13.360;2023-09-19T08:05:06;18.70;99.90
3756;DHT22;1893;52.526;13.360;2023-09-19T08:07:32;18.60;99.90
3756;DHT22;1893;52.526;13.360;2023-09-19T08:09:58;18.70;99.90
3756;DHT22;1893;52.526;13.360;2023-09-19T08:12:24;18.70;99.90
3756;DHT22;1893;52.526;13.360;2023-09-19T08:14:50;18.90;99.90
3756;DHT22;1893;52.526;13.360;2023-09-19T08:17:16;19.00;99.90
3756;DHT22;1893;52.526;13.360;2023-09-19T08:19:42;19.00;99.90
3756;DHT22;1893;52.526;13.360;2023-09-19T08:22:10;19.00;99.90
3756;DHT22;1893;52.526;13.360;2023-09-19T08:24:36;19.10;99.90
3756;DHT22;1893;52.526;13.360;2023-09-19T08:27:04;18.90;99.90
3756;DHT22;1893;52.526;13.360;2023-09-19T08:29:31;18.80;99.90
3756;DHT22;1893;52.526;13.360;2023-09-19T08:31:57;18.80;99.90
3756;DHT22;1893;52.526;13.360;2023-09-19T08:34:23;19.10;99.90
3756;DHT22;1893;52.526;13.360;2023-09-19T08:36:53;19.30;99.90
3756;DHT22;1893;52.526;13.360;2023-09-19T08:39:25;19.00;99.90
3756;DHT22;1893;52.526;13.360;2023-09-19T08:41:58;19.00;99.90
3756;DHT22;1893;52.526;13.360;2023-09-19T08:44:27;19.20;99.90
3756;DHT22;1893;52.526;13.360;2023-09-19T08:50:04;19.40;99.90
3756;DHT22;1893;52.526;13.360;2023-09-19T08:52:41;19.70;99.90
3756;DHT22;1893;52.526;13.360;2023-09-19T08:55:12;19.40;99.90
3756;DHT22;1893;52.526;13.360;2023-09-19T08:57:38;19.60;99.90
3756;DHT22;1893;52.526;13.360;2023-09-19T09:00:09;19.50;99.90
3756;DHT22;1893;52.526;13.360;2023-09-19T09:02:39;19.30;99.90
3756;DHT22;1893;52.526;13.360;2023-09-19T09:05:10;19.20;99.90
3756;DHT22;1893;52.526;13.360;2023-09-19T09:07:37;19.00;99.90
3756;DHT22;1893;52.526;13.360;2023-09-19T09:10:04;19.30;99.90
3756;DHT22;1893;52.526;13.360;2023-09-19T09:12:30;19.70;99.90
3756;DHT22;1893;52.526;13.360;2023-09-19T09:14:56;19.80;99.90
3756;DHT22;1893;52.526;13.360;2023-09-19T09:17:25;19.80;99.90
3756;DHT22;1893;52.526;13.360;2023-09-19T09:19:54;19.60;99.90
3756;DHT22;1893;52.526;13.360;2023-09-19T09:22:20;20.30;99.90
3756;DHT22;1893;52.526;13.360;2023-09-19T09:24:56;20.90;99.90
3756;DHT22;1893;52.526;13.360;2023-09-19T09:27:29;20.80;99.90
3756;DHT22;1893;52.526;13.360;2023-09-19T09:29:55;21.00;99.90
3756;DHT22;1893;52.526;13.360;2023-09-19T09:32:22;20.90;99.90
3756;DHT22;1893;52.526;13.360;2023-09-19T09:34:50;21.10;99.90
3756;DHT22;1893;52.526;13.360;2023-09-19T09:37:17;21.10;99.90
3756;DHT22;1893;52.526;13.360;2023-09-19T09:39:55;20.40;99.90
3756;DHT22;1893;52.526;13.360;2023-09-19T09:42:36;19.70;99.90
3756;DHT22;1893;52.526;13.360;2023-09-19T09:47:47;20.40;99.90
3756;DHT22;1893;52.526;13.360;2023-09-19T09:50:26;20.70;99.90
3756;DHT22;1893;52.526;13.360;2023-09-19T09:52:56;20.70;99.90
3756;DHT22;1893;52.526;13.360;2023-09-19T09:56:08;20.80;99.90
3756;DHT22;1893;52.526;13.360;2023-09-19T10:01:14;21.20;99.90
3756;DHT22;1893;52.526;13.360;2023-09-19T10:03:43;21.70;99.90
3756;DHT22;1893;52.526;13.360;2023-09-19T10:06:14;22.30;99.90
3756;DHT22;1893;52.526;13.360;2023-09-19T10:09:02;22.00;99.90
3756;DHT22;1893;52.526;13.360;2023-09-19T10:11:31;21.90;99.90
3756;DHT22;1893;52.526;13.360;2023-09-19T10:14:00;22.20;99.90
3756;DHT22;1893;52.526;13.360;2023-09-19T10:16:32;23.60;99.90
3756;DHT22;1893;52.526;13.360;2023-09-19T10:19:02;23.60;99.90
3756;DHT22;1893;52.526;13.360;2023-09-19T10:21:28;24.30;99.90
3756;DHT22;1893;52.526;13.360;2023-09-19T10:23:59;24.40;99.90
3756;DHT22;1893;52.526;13.360;2023-09-19T10:26:27;23.50;99.90
3756;DHT22;1893;52.526;13.360;2023-09-19T10:28:57;23.20;99.90
3756;DHT22;1893;52.526;13.360;2023-09-19T10:31:27;22.30;99.90
3756;DHT22;1893;52.526;13.360;2023-09-19T10:33:55;22.20;99.90
3756;DHT22;1893;52.526;13.360;2023-09-19T10:36:24;21.90;99.90
3756;DHT22;1893;52.526;13.360;2023-09-19T10:38:55;22.80;99.90
3756;DHT22;1893;52.526;13.360;2023-09-19T10:41:23;23.50;99.90
3756;DHT22;1893;52.526;13.360;2023-09-19T10:43:51;23.90;99.90
3756;DHT22;1893;52.526;13.360;2023-09-19T10:46:20;24.30;99.90
3756;DHT22;1893;52.526;13.360;2023-09-19T10:48:46;24.60;99.90
3756;DHT22;1893;52.526;13.360;2023-09-19T10:51:21;24.40;99.90
3756;DHT22;1893;52.526;13.360;2023-09-19T10:54:01;24.60;99.90
3756;DHT22;1893;52.526;13.360;2023-09-19T10:56:37;24.60;99.90
3756;DHT22;1893;52.526;13.360;2023-09-19T10:59:15;23.90;99.90
3756;DHT22;1893;52.526;13.360;2023-09-19T11:04:36;23.60;99.90
3756;DHT22;1893;52.526;13.360;2023-09-19T11:07:09;22.50;99.90
3756;DHT22;1893;52.526;13.360;2023-09-19T11:09:55;21.80;99.90
3756;DHT22;1893;52.526;13.360;2023-09-19T11:16:17;21.90;99.90
3756;DHT22;1893;52.526;13.360;2023-09-19T11:26:48;20.90;99.90
3756;DHT22;1893;52.526;13.360;2023-09-19T11:29:30;20.90;99.90
3756;DHT22;1893;52.526;13.360;2023-09-19T11:31:57;21.10;99.90
3756;DHT22;1893;52.526;13.360;2023-09-19T11:34:40;20.80;99.90
3756;DHT22;1893;52.526;13.360;2023-09-19T11:48:18;20.70;99.90
3756;DHT22;1893;52.526;13.360;2023-09-19T11:50:45;20.90;99.90
3756;DHT22;1893;52.526;13.360;2023-09-19T11:53:13;20.80;99.90
3756;DHT22;1893;52.526;13.360;2023-09-19T11:55:40;21.10;99.90
3756;DHT22;1893;52.526;13.360;2023-09-19T11:58:08;20.80;99.90
3756;DHT22;1893;52.526;13.360;2023-09-19T12:00:35;21.00;99.90
3756;DHT22;1893;52.526;13.360;2023-09-19T12:03:09;20.90;99.90
3756;DHT22;1893;52.526;13.360;2023-09-19T12:05:35;20.60;99.90
3756;DHT22;1893;52.526;13.360;2023-09-19T12:08:05;20.50;99.90
3756;DHT22;1893;52.526;13.360;2023-09-19T12:10:50;20.30;99.90
3756;DHT22;1893;52.526;13.360;2023-09-19T12:13:20;20.50;99.90
3756;DHT22;1893;52.526;13.360;2023-09-19T12:15:46;20.60;99.90
3756;DHT22;1893;52.526;13.360;2023-09-19T12:18:28;20.80;99.90
3756;DHT22;1893;52.526;13.360;2023-09-19T12:20:54;21.00;99.90
3756;DHT22;1893;52.526;13.360;2023-09-19T12:23:20;21.10;99.90
3756;DHT22;1893;52.526;13.360;2023-09-19T12:25:46;21.10;99.90
3756;DHT22;1893;52.526;13.360;2023-09-19T12:28:16;21.10;99.90
3756;DHT22;1893;52.526;13.360;2023-09-19T12:30:47;21.20;99.90
3756;DHT22;1893;52.526;13.360;2023-09-19T12:33:18;21.10;99.90
3756;DHT22;1893;52.526;13.360;2023-09-19T12:35:50;21.20;99.90
3756;DHT22;1893;52.526;13.360;2023-09-19T12:38:26;21.40;99.90
3756;DHT22;1893;52.526;13.360;2023-09-19T12:40:58;21.60;99.90
3756;DHT22;1893;52.526;13.360;2023-09-19T12:43:26;21.60;99.90
3756;DHT22;1893;52.526;13.360;2023-09-19T12:45:52;21.70;99.90
3756;DHT22;1893;52.526;13.360;2023-09-19T12:48:24;21.60;99.90
3756;DHT22;1893;52.526;13.360;2023-09-19T12:51:06;21.60;99.90
3756;DHT22;1893;52.526;13.360;2023-09-19T12:53:34;21.60;99.90
3756;DHT22;1893;52.526;13.360;2023-09-19T12:56:03;21.30;99.90
3756;DHT22;1893;52.526;13.360;2023-09-19T12:58:34;21.30;99.90
3756;DHT22;1893;52.526;13.360;2023-09-19T13:01:00;21.20;99.90
3756;DHT22;1893;52.526;13.360;2023-09-19T13:03:28;21.10;99.90
3756;DHT22;1893;52.526;13.360;2023-09-19T13:06:01;20.90;99.90
3756;DHT22;1893;52.526;13.360;2023-09-19T13:08:34;21.00;99.90
3756;DHT22;1893;52.526;13.360;2023-09-19T13:11:13;21.10;99.90
3756;DHT22;1893;52.526;13.360;2023-09-19T13:13:45;21.00;99.90
3756;DHT22;1893;52.526;13.360;2023-09-19T13:16:15;20.90;99.90
3756;DHT22;1893;52.526;13.360;2023-09-19T13:18:49;20.80;99.90
3756;DHT22;1893;52.526;13.360;2023-09-19T13:21:17;20.80;99.90
3756;DHT22;1893;52.526;13.360;2023-09-19T13:23:53;20.90;99.90
3756;DHT22;1893;52.526;13.360;2023-09-19T13:26:27;20.70;99.90
3756;DHT22;1893;52.526;13.360;2023-09-19T13:28:54;20.80;99.90
3756;DHT22;1893;52.526;13.360;2023-09-19T13:31:20;20.80;99.90
3756;DHT22;1893;52.526;13.360;2023-09-19T13:33:48;20.80;99.90
3756;DHT22;1893;52.526;13.360;2023-09-19T13:36:14;20.80;99.90
3756;DHT22;1893;52.526;13.360;2023-09-19T13:38:41;20.90;99.90
3756;DHT22;1893;52.526;13.360;2023-09-19T13:41:10;20.80;99.90
3756;DHT22;1893;52.526;13.360;2023-09-19T13:43:37;20.70;99.90
3756;DHT22;1893;52.526;13.360;2023-09-19T13:46:04;20.70;99.90
3756;DHT22;1893;52.526;13.360;2023-09-19T13:48:30;20.80;99.90
3756;DHT22;1893;52.526;13.360;2023-09-19T13:50:56;20.90;99.90
3756;DHT22;1893;52.526;13.360;2023-09-19T13:53:22;20.90;99.90
3756;DHT22;1893;52.526;13.360;2023-09-19T13:55:48;20.70;99.90
3756;DHT22;1893;52.526;13.360;2023-09-19T13:58:14;20.50;99.90
3756;DHT22;1893;52.526;13.360;2023-09-19T14:00:40;20.40;99.90
3756;DHT22;1893;52.526;13.360;2023-09-19T14:03:06;20.40;99.90
3756;DHT22;1893;52.526;13.360;2023-09-19T14:05:32;20.70;99.90
3756;DHT22;1893;52.526;13.360;2023-09-19T14:07:58;20.60;99.90
3756;DHT22;1893;52.526;13.360;2023-09-19T14:10:25;20.60;99.90
3756;DHT22;1893;52.526;13.360;2023-09-19T14:12:52;20.80;99.90
3756;DHT22;1893;52.526;13.360;2023-09-19T14:15:18;21.00;99.90
3756;DHT22;1893;52.526;13.360;2023-09-19T14:17:44;21.10;99.90
3756;DHT22;1893;52.526;13.360;2023-09-19T14:20:13;21.20;99.90
3756;DHT22;1893;52.526;13.360;2023-09-19T14:22:39;21.10;99.90
3756;DHT22;1893;52.526;13.360;2023-09-19T14:25:05;21.20;99.90
3756;DHT22;1893;52.526;13.360;2023-09-19T14:27:31;21.00;99.90
3756;DHT22;1893;52.526;13.360;2023-09-19T14:29:57;21.10;99.90
3756;DHT22;1893;52.526;13.360;2023-09-19T14:32:23;20.80;99.90
3756;DHT22;1893;52.526;13.360;2023-09-19T14:34:49;20.70;99.90
3756;DHT22;1893;52.526;13.360;2023-09-19T14:37:15;20.70;99.90
3756;DHT22;1893;52.526;13.360;2023-09-19T14:39:41;20.70;99.90
3756;DHT22;1893;52.526;13.360;2023-09-19T14:42:10;20.60;99.90
3756;DHT22;1893;52.526;13.360;2023-09-19T14:44:36;20.70;99.90
3756;DHT22;1893;52.526;13.360;2023-09-19T14:47:03;20.70;99.90
3756;DHT22;1893;52.526;13.360;2023-09-19T14:49:33;20.60;99.90
3756;DHT22;1893;52.526;13.360;2023-09-19T14:51:59;20.50;99.90
3756;DHT22;1893;52.526;13.360;2023-09-19T14:54:24;20.60;99.90
3756;DHT22;1893;52.526;13.360;2023-09-19T14:56:50;20.60;99.90
3756;DHT22;1893;52.526;13.360;2023-09-19T14:59:30;20.60;99.90
3756;DHT22;1893;52.526;13.360;2023-09-19T15:01:55;20.60;99.90
3756;DHT22;1893;52.526;13.360;2023-09-19T15:04:21;20.60;99.90
3756;DHT22;1893;52.526;13.360;2023-09-19T15:06:47;20.50;99.90
3756;DHT22;1893;52.526;13.360;2023-09-19T15:09:14;20.60;99.90
3756;DHT22;1893;52.526;13.360;2023-09-19T15:11:39;20.50;99.90
3756;DHT22;1893;52.526;13.360;2023-09-19T15:14:05;20.40;99.90
3756;DHT22;1893;52.526;13.360;2023-09-19T15:16:30;20.40;99.90
3756;DHT22;1893;52.526;13.360;2023-09-19T15:18:57;20.40;99.90
3756;DHT22;1893;52.526;13.360;2023-09-19T15:21:23;20.40;99.90
3756;DHT22;1893;52.526;13.360;2023-09-19T15:23:49;20.40;99.90
3756;DHT22;1893;52.526;13.360;2023-09-19T15:26:15;20.50;99.90
3756;DHT22;1893;52.526;13.360;2023-09-19T15:28:46;20.50;99.90
3756;DHT22;1893;52.526;13.360;2023-09-19T15:31:14;20.40;99.90
3756;DHT22;1893;52.526;13.360;2023-09-19T15:33:40;20.30;99.90
3756;DHT22;1893;52.526;13.360;2023-09-19T15:36:07;20.50;99.90
3756;DHT22;1893;52.526;13.360;2023-09-19T15:41:22;20.40;99.90
3756;DHT22;1893;52.526;13.360;2023-09-19T15:43:48;20.40;99.90
3756;DHT22;1893;52.526;13.360;2023-09-19T15:46:14;20.40;99.90
3756;DHT22;1893;52.526;13.360;2023-09-19T15:48:41;20.40;99.90
3756;DHT22;1893;52.526;13.360;2023-09-19T15:51:06;20.50;99.90
3756;DHT22;1893;52.526;13.360;2023-09-19T15:53:43;20.50;99.90
3756;DHT22;1893;52.526;13.360;2023-09-19T15:56:10;20.50;99.90
3756;DHT22;1893;52.526;13.360;2023-09-19T15:58:40;20.50;99.90
3756;DHT22;1893;52.526;13.360;2023-09-19T16:01:06;20.50;99.90
3756;DHT22;1893;52.526;13.360;2023-09-19T16:03:35;20.40;99.90
3756;DHT22;1893;52.526;13.360;2023-09-19T16:06:01;20.30;99.90
3756;DHT22;1893;52.526;13.360;2023-09-19T16:08:26;20.30;99.90
3756;DHT22;1893;52.526;13.360;2023-09-19T16:10:52;20.20;99.90
3756;DHT22;1893;52.526;13.360;2023-09-19T16:13:18;20.20;99.90
3756;DHT22;1893;52.526;13.360;2023-09-19T16:15:44;20.20;99.90
3756;DHT22;1893;52.526;13.360;2023-09-19T16:18:12;20.20;99.90
3756;DHT22;1893;52.526;13.360;2023-09-19T16:20:38;20.20;99.90
3756;DHT22;1893;52.526;13.360;2023-09-19T16:23:04;20.10;99.90
3756;DHT22;1893;52.526;13.360;2023-09-19T16:25:30;20.10;99.90
3756;DHT22;1893;52.526;13.360;2023-09-19T16:27:57;20.10;99.90
3756;DHT22;1893;52.526;13.360;2023-09-19T16:30:23;20.00;99.90
3756;DHT22;1893;52.526;13.360;2023-09-19T16:32:48;19.90;99.90
3756;DHT22;1893;52.526;13.360;2023-09-19T16:35:14;19.90;99.90
3756;DHT22;1893;52.526;13.360;2023-09-19T16:37:41;19.90;99.90
3756;DHT22;1893;52.526;13.360;2023-09-19T16:40:07;19.80;99.90
3756;DHT22;1893;52.526;13.360;2023-09-19T16:42:34;19.80;99.90
3756;DHT22;1893;52.526;13.360;2023-09-19T16:45:00;19.70;99.90
3756;DHT22;1893;52.526;13.360;2023-09-19T16:47:25;19.60;99.90
3756;DHT22;1893;52.526;13.360;2023-09-19T16:49:51;19.60;99.90
3756;DHT22;1893;52.526;13.360;2023-09-19T16:52:18;19.60;99.90
3756;DHT22;1893;52.526;13.360;2023-09-19T16:54:43;19.50;99.90